In Rescue
 
Open Full Screen Window  High Contrast Mode
Wind Gusting 14 knots
08
July 13, 2020 9:43 AM CDT
Weather Information
Wind Direction
  190 °
Wind Speed
  08 kt (9 mph)
Wind Gust
  14 kt (16 mph)
Altimeter
29.83 in
Visibility
10 SM
Temperature
24° C
75° F
Dewpoint
16° C
61° F
Humidity
61%
1hr Rain Fall
00.00 in.
24hr Rain Fall
00.00 in.
Sky Condition
Clear
VFR

METAR KMVE 131443Z AUTO 19008G14KT 10SM CLR 24/16 A2983 RMK AO2

FAA Disclaimer: The data displayed is for advisory purposes only and is not to be used for flight planning or operations.